Aeroporto :
LOGIN :

Iscrizione | Disclaimer

   EN    FR    IT 

 










Sommario :    VFR   VFR Marginale   IFR   IFR Intensivo   IFR Molto Intensivo
Visibilità : 
Base nubi : 
>= 8 km
>= 3000ft
5 / 8 km
1000 / 3000 ft
1500m / 5 km
500 / 1000 ft
800 / 1500m
200 / 500 ft
< 800m
< 200 ft
Simboli :   Temporali  Nebbia  Neve Forte  Precipitazioni Forti  Vento > 20 kt
SIGMETs :   Varie  Temporali  Ghiacco  Turbolenza  Onda orograficha  Ceneri Vulcaniche






- Altitudine del aeroporto : 392 ft
- Codice IATA : CDG


LFPG - Paris-Aeroport Charles De Gaulle

ULTIMO METAR :
  • 152100Z 17007KT 9999 FEW014 BKN090 BKN120 08/07 Q1006 NOSIG

METARs OBSOLETI :
  • 152030Z 18007KT 160V330 9999 FEW016 BKN120 08/06 Q1006 NOSIG
  • 152000Z VRB08G20KT 9999 FEW040 BKN230 08/06 Q1006 NOSIG
  • 151930Z 18007KT CAVOK 08/06 Q1006 NOSIG
  • 151900Z VRB07G18KT CAVOK 08/06 Q1006 NOSIG
  • 151830Z 18007KT CAVOK 07/05 Q1006 NOSIG

TAF AMD TAF LFPG
Valido dal 15 a 18 ore il 17 a 00 ore UTC


151729Z 1518/1624 24012KT CAVOK TX11/1614Z TN07/1518Z
PROB40
TEMPO 1608/1612 BKN005
ATIS : +33 1 48 62 10 92



MetMap, La meteo Aeronautica in un colpo d'occhio ! - Copyright ORBIFLY Dicembre 2007 - Disclaimer

ORBIFLY MET'MAP TEAM :

Programmazione e sviluppo : Alexandra Zaïnal
Concezione : Baudouin d'Aumeries
Aiuto per la programmazione : Marc-Olivier Méhu
Supporto tecnico e logistico : Manuel Goepfert
Aiuto per la traduzione : Arnaldo La Scala

Contatto : metmap@orbifly.com




FONTI E CREDITI :

   NOAA